sensor_id;sensor_type;location;lat;lon;timestamp;pressure;altitude;pressure_sealevel;temperature;humidity
78117;BME280;69042;59.120;37.904;2023-04-08T00:00:10;101672.09;;;2.28;41.61
78117;BME280;69042;59.120;37.904;2023-04-08T00:02:36;101672.06;;;2.26;42.19
78117;BME280;69042;59.120;37.904;2023-04-08T00:05:02;101661.72;;;2.23;42.18
78117;BME280;69042;59.120;37.904;2023-04-08T00:07:28;101667.66;;;2.19;41.70
78117;BME280;69042;59.120;37.904;2023-04-08T00:09:55;101661.56;;;2.14;42.12
78117;BME280;69042;59.120;37.904;2023-04-08T00:12:21;101670.13;;;2.13;42.49
78117;BME280;69042;59.120;37.904;2023-04-08T00:14:47;101664.06;;;2.10;41.95
78117;BME280;69042;59.120;37.904;2023-04-08T00:17:13;101656.28;;;2.08;42.40
78117;BME280;69042;59.120;37.904;2023-04-08T00:19:40;101664.00;;;2.08;42.30
78117;BME280;69042;59.120;37.904;2023-04-08T00:22:06;101654.53;;;2.07;42.02
78117;BME280;69042;59.120;37.904;2023-04-08T00:24:33;101663.16;;;2.07;42.82
78117;BME280;69042;59.120;37.904;2023-04-08T00:26:59;101658.00;;;2.07;41.86
78117;BME280;69042;59.120;37.904;2023-04-08T00:29:25;101667.41;;;2.07;42.27
78117;BME280;69042;59.120;37.904;2023-04-08T00:31:51;101658.81;;;2.06;42.33
78117;BME280;69042;59.120;37.904;2023-04-08T00:34:17;101663.97;;;2.06;42.13
78117;BME280;69042;59.120;37.904;2023-04-08T00:36:44;101665.66;;;2.04;42.35
78117;BME280;69042;59.120;37.904;2023-04-08T00:39:12;101670.81;;;2.04;42.32
78117;BME280;69042;59.120;37.904;2023-04-08T00:41:38;101663.97;;;2.05;42.80
78117;BME280;69042;59.120;37.904;2023-04-08T00:44:05;101667.38;;;2.04;42.16
78117;BME280;69042;59.120;37.904;2023-04-08T00:46:39;101669.91;;;2.01;42.71
78117;BME280;69042;59.120;37.904;2023-04-08T00:49:05;101665.63;;;2.01;42.61
78117;BME280;69042;59.120;37.904;2023-04-08T00:51:33;101658.69;;;2.00;41.99
78117;BME280;69042;59.120;37.904;2023-04-08T00:54:02;101670.72;;;2.00;42.38
78117;BME280;69042;59.120;37.904;2023-04-08T00:56:31;101667.25;;;1.98;42.29
78117;BME280;69042;59.120;37.904;2023-04-08T00:58:59;101666.34;;;1.96;42.24
78117;BME280;69042;59.120;37.904;2023-04-08T01:01:39;101667.22;;;1.95;42.15
78117;BME280;69042;59.120;37.904;2023-04-08T01:09:04;101672.19;;;1.85;42.57
78117;BME280;69042;59.120;37.904;2023-04-08T01:11:33;101666.16;;;1.83;42.56
78117;BME280;69042;59.120;37.904;2023-04-08T01:14:02;101666.97;;;1.81;42.50
78117;BME280;69042;59.120;37.904;2023-04-08T01:16:31;101668.63;;;1.79;42.11
78117;BME280;69042;59.120;37.904;2023-04-08T01:18:58;101666.03;;;1.77;43.10
78117;BME280;69042;59.120;37.904;2023-04-08T01:21:26;101662.53;;;1.75;42.58
78117;BME280;69042;59.120;37.904;2023-04-08T01:24:05;101663.34;;;1.73;42.95
78117;BME280;69042;59.120;37.904;2023-04-08T01:26:34;101663.41;;;1.74;42.82
78117;BME280;69042;59.120;37.904;2023-04-08T01:29:01;101662.53;;;1.74;42.75
78117;BME280;69042;59.120;37.904;2023-04-08T01:31:28;101656.47;;;1.72;43.47
78117;BME280;69042;59.120;37.904;2023-04-08T01:33:56;101654.81;;;1.75;43.08
78117;BME280;69042;59.120;37.904;2023-04-08T01:36:25;101654.81;;;1.75;42.93
78117;BME280;69042;59.120;37.904;2023-04-08T01:38:51;101662.53;;;1.74;42.59
78117;BME280;69042;59.120;37.904;2023-04-08T01:41:18;101664.22;;;1.72;43.30
78117;BME280;69042;59.120;37.904;2023-04-08T01:43:46;101663.31;;;1.71;42.88
78117;BME280;69042;59.120;37.904;2023-04-08T01:46:14;101658.16;;;1.71;43.04
78117;BME280;69042;59.120;37.904;2023-04-08T01:48:40;101663.31;;;1.70;43.00
78117;BME280;69042;59.120;37.904;2023-04-08T01:51:06;101659.78;;;1.66;43.06
78117;BME280;69042;59.120;37.904;2023-04-08T01:53:35;101654.56;;;1.61;43.05
78117;BME280;69042;59.120;37.904;2023-04-08T01:56:05;101660.47;;;1.57;43.39
78117;BME280;69042;59.120;37.904;2023-04-08T01:58:38;101662.97;;;1.53;43.86
78117;BME280;69042;59.120;37.904;2023-04-08T02:01:10;101660.31;;;1.48;43.87
78117;BME280;69042;59.120;37.904;2023-04-08T02:03:37;101664.53;;;1.44;43.88
78117;BME280;69042;59.120;37.904;2023-04-08T02:06:06;101655.06;;;1.43;43.78
78117;BME280;69042;59.120;37.904;2023-04-08T02:08:35;101660.13;;;1.39;43.94
78117;BME280;69042;59.120;37.904;2023-04-08T02:11:02;101665.22;;;1.36;43.92
78117;BME280;69042;59.120;37.904;2023-04-08T02:13:30;101661.69;;;1.32;44.18
78117;BME280;69042;59.120;37.904;2023-04-08T02:16:09;101664.25;;;1.31;44.44
78117;BME280;69042;59.120;37.904;2023-04-08T02:18:42;101666.75;;;1.28;44.76
78117;BME280;69042;59.120;37.904;2023-04-08T02:21:13;101661.53;;;1.24;44.62
78117;BME280;69042;59.120;37.904;2023-04-08T02:23:41;101667.50;;;1.22;44.75
78117;BME280;69042;59.120;37.904;2023-04-08T02:26:14;101667.41;;;1.17;44.45
78117;BME280;69042;59.120;37.904;2023-04-08T02:28:41;101663.94;;;1.15;44.85
78117;BME280;69042;59.120;37.904;2023-04-08T02:31:10;101663.03;;;1.13;44.83
78117;BME280;69042;59.120;37.904;2023-04-08T02:33:42;101662.16;;;1.14;45.17
78117;BME280;69042;59.120;37.904;2023-04-08T02:36:10;101659.59;;;1.14;44.39
78117;BME280;69042;59.120;37.904;2023-04-08T02:38:37;101665.50;;;1.10;44.51
78117;BME280;69042;59.120;37.904;2023-04-08T02:41:03;101656.03;;;1.08;44.54
78117;BME280;69042;59.120;37.904;2023-04-08T02:43:29;101656.88;;;1.07;45.24
78117;BME280;69042;59.120;37.904;2023-04-08T02:45:59;101659.44;;;1.07;44.79
78117;BME280;69042;59.120;37.904;2023-04-08T02:48:29;101660.25;;;1.04;45.17
78117;BME280;69042;59.120;37.904;2023-04-08T02:50:55;101655.06;;;1.02;45.00
78117;BME280;69042;59.120;37.904;2023-04-08T02:53:22;101656.78;;;1.03;45.25
78117;BME280;69042;59.120;37.904;2023-04-08T02:55:49;101657.69;;;1.06;45.11
78117;BME280;69042;59.120;37.904;2023-04-08T02:58:15;101656.06;;;1.09;45.20
78117;BME280;69042;59.120;37.904;2023-04-08T03:00:41;101655.22;;;1.10;45.21
78117;BME280;69042;59.120;37.904;2023-04-08T03:03:07;101657.00;;;1.13;45.27
78117;BME280;69042;59.120;37.904;2023-04-08T03:05:33;101654.44;;;1.14;45.63
78117;BME280;69042;59.120;37.904;2023-04-08T03:07:59;101646.81;;;1.17;45.39
78117;BME280;69042;59.120;37.904;2023-04-08T03:10:26;101651.09;;;1.18;45.59
78117;BME280;69042;59.120;37.904;2023-04-08T03:12:52;101653.72;;;1.20;45.80
78117;BME280;69042;59.120;37.904;2023-04-08T03:15:18;101652.91;;;1.22;45.48
78117;BME280;69042;59.120;37.904;2023-04-08T03:17:44;101646.09;;;1.24;45.61
78117;BME280;69042;59.120;37.904;2023-04-08T03:20:10;101647.91;;;1.30;45.47
78117;BME280;69042;59.120;37.904;2023-04-08T03:22:36;101648.00;;;1.35;45.74
78117;BME280;69042;59.120;37.904;2023-04-08T03:25:03;101647.28;;;1.40;45.79
78117;BME280;69042;59.120;37.904;2023-04-08T03:27:29;101640.47;;;1.42;45.41
78117;BME280;69042;59.120;37.904;2023-04-08T03:29:55;101645.69;;;1.47;45.94
78117;BME280;69042;59.120;37.904;2023-04-08T03:32:22;101643.13;;;1.49;45.96
78117;BME280;69042;59.120;37.904;2023-04-08T03:34:48;101644.13;;;1.54;46.12
78117;BME280;69042;59.120;37.904;2023-04-08T03:37:16;101642.44;;;1.57;46.06
78117;BME280;69042;59.120;37.904;2023-04-08T03:39:42;101635.63;;;1.59;45.84
78117;BME280;69042;59.120;37.904;2023-04-08T03:42:08;101638.28;;;1.64;45.41
78117;BME280;69042;59.120;37.904;2023-04-08T03:44:35;101638.34;;;1.67;46.18
78117;BME280;69042;59.120;37.904;2023-04-08T03:47:01;101643.59;;;1.72;45.92
78117;BME280;69042;59.120;37.904;2023-04-08T03:49:27;101643.66;;;1.75;46.25
78117;BME280;69042;59.120;37.904;2023-04-08T03:51:53;101643.72;;;1.79;46.34
78117;BME280;69042;59.120;37.904;2023-04-08T03:54:19;101640.38;;;1.83;46.48
78117;BME280;69042;59.120;37.904;2023-04-08T03:56:45;101643.91;;;1.88;45.49
78117;BME280;69042;59.120;37.904;2023-04-08T03:59:11;101642.28;;;1.95;46.02
78117;BME280;69042;59.120;37.904;2023-04-08T04:01:37;101647.56;;;2.01;45.77
78117;BME280;69042;59.120;37.904;2023-04-08T04:04:03;101648.53;;;2.08;45.50
78117;BME280;69042;59.120;37.904;2023-04-08T04:06:29;101646.09;;;2.14;45.25
78117;BME280;69042;59.120;37.904;2023-04-08T04:08:55;101638.44;;;2.20;45.59
78117;BME280;69042;59.120;37.904;2023-04-08T04:11:22;101638.53;;;2.26;45.95
78117;BME280;69042;59.120;37.904;2023-04-08T04:13:48;101636.88;;;2.32;45.59
78117;BME280;69042;59.120;37.904;2023-04-08T04:16:14;101641.28;;;2.37;45.90
78117;BME280;69042;59.120;37.904;2023-04-08T04:18:40;101644.00;;;2.45;45.42
78117;BME280;69042;59.120;37.904;2023-04-08T04:21:06;101637.22;;;2.50;45.29
78117;BME280;69042;59.120;37.904;2023-04-08T04:23:32;101639.91;;;2.58;45.52
78117;BME280;69042;59.120;37.904;2023-04-08T04:25:58;101640.84;;;2.64;44.98
78117;BME280;69042;59.120;37.904;2023-04-08T04:28:24;101634.94;;;2.71;45.57
78117;BME280;69042;59.120;37.904;2023-04-08T04:30:50;101636.75;;;2.79;45.52
78117;BME280;69042;59.120;37.904;2023-04-08T04:33:16;101636.84;;;2.85;45.24
78117;BME280;69042;59.120;37.904;2023-04-08T04:35:42;101643.84;;;2.92;44.88
78117;BME280;69042;59.120;37.904;2023-04-08T04:38:08;101638.75;;;2.98;45.16
78117;BME280;69042;59.120;37.904;2023-04-08T04:40:37;101639.75;;;3.08;45.45
78117;BME280;69042;59.120;37.904;2023-04-08T04:43:04;101641.59;;;3.17;45.22
78117;BME280;69042;59.120;37.904;2023-04-08T04:45:30;101637.34;;;3.22;44.61
78117;BME280;69042;59.120;37.904;2023-04-08T04:47:56;101636.56;;;3.27;45.37
78117;BME280;69042;59.120;37.904;2023-04-08T04:50:22;101637.56;;;3.39;44.23
78117;BME280;69042;59.120;37.904;2023-04-08T04:52:48;101634.22;;;3.49;44.57
78117;BME280;69042;59.120;37.904;2023-04-08T04:55:14;101637.78;;;3.59;44.61
78117;BME280;69042;59.120;37.904;2023-04-08T04:57:41;101639.59;;;3.69;44.16
78117;BME280;69042;59.120;37.904;2023-04-08T05:00:08;101640.56;;;3.77;44.27
78117;BME280;69042;59.120;37.904;2023-04-08T05:02:35;101634.63;;;3.86;44.15
78117;BME280;69042;59.120;37.904;2023-04-08T05:05:01;101639.03;;;3.94;44.30
78117;BME280;69042;59.120;37.904;2023-04-08T05:07:27;101633.94;;;4.04;43.66
78117;BME280;69042;59.120;37.904;2023-04-08T05:09:53;101640.91;;;4.14;44.20
78117;BME280;69042;59.120;37.904;2023-04-08T05:12:19;101640.97;;;4.20;43.58
78117;BME280;69042;59.120;37.904;2023-04-08T05:14:45;101638.44;;;4.26;44.06
78117;BME280;69042;59.120;37.904;2023-04-08T05:17:11;101643.69;;;4.32;43.59
78117;BME280;69042;59.120;37.904;2023-04-08T05:19:37;101645.47;;;4.40;43.86
78117;BME280;69042;59.120;37.904;2023-04-08T05:22:03;101643.75;;;4.42;43.61
78117;BME280;69042;59.120;37.904;2023-04-08T05:24:29;101650.66;;;4.46;43.21
78117;BME280;69042;59.120;37.904;2023-04-08T05:26:55;101648.13;;;4.49;43.71
78117;BME280;69042;59.120;37.904;2023-04-08T05:29:22;101641.22;;;4.52;42.98
78117;BME280;69042;59.120;37.904;2023-04-08T05:31:48;101645.63;;;4.59;42.89
78117;BME280;69042;59.120;37.904;2023-04-08T05:34:15;101644.78;;;4.65;43.18
78117;BME280;69042;59.120;37.904;2023-04-08T05:36:44;101648.28;;;4.73;43.17
78117;BME280;69042;59.120;37.904;2023-04-08T05:39:10;101644.00;;;4.82;42.93
78117;BME280;69042;59.120;37.904;2023-04-08T05:41:36;101644.06;;;4.88;42.76
78117;BME280;69042;59.120;37.904;2023-04-08T05:44:02;101643.22;;;4.89;42.86
78117;BME280;69042;59.120;37.904;2023-04-08T05:46:28;101640.69;;;4.98;43.08
78117;BME280;69042;59.120;37.904;2023-04-08T05:48:54;101647.63;;;5.05;42.66
78117;BME280;69042;59.120;37.904;2023-04-08T05:51:20;101652.81;;;5.13;42.70
78117;BME280;69042;59.120;37.904;2023-04-08T05:53:46;101652.00;;;5.21;42.51
78117;BME280;69042;59.120;37.904;2023-04-08T05:56:12;101653.75;;;5.29;42.65
78117;BME280;69042;59.120;37.904;2023-04-08T05:58:38;101652.09;;;5.37;42.80
78117;BME280;69042;59.120;37.904;2023-04-08T06:01:04;101645.19;;;5.43;42.93
78117;BME280;69042;59.120;37.904;2023-04-08T06:03:32;101647.81;;;5.51;42.75
78117;BME280;69042;59.120;37.904;2023-04-08T06:05:58;101645.25;;;5.59;42.61
78117;BME280;69042;59.120;37.904;2023-04-08T06:08:24;101648.72;;;5.67;42.46
78117;BME280;69042;59.120;37.904;2023-04-08T06:10:50;101644.44;;;5.77;42.32
78117;BME280;69042;59.120;37.904;2023-04-08T06:13:17;101640.97;;;5.82;42.17
78117;BME280;69042;59.120;37.904;2023-04-08T06:15:44;101639.25;;;5.89;42.17
78117;BME280;69042;59.120;37.904;2023-04-08T06:18:10;101642.75;;;5.96;41.96
78117;BME280;69042;59.120;37.904;2023-04-08T06:20:36;101645.38;;;6.05;42.13
78117;BME280;69042;59.120;37.904;2023-04-08T06:23:02;101637.59;;;6.10;41.97
78117;BME280;69042;59.120;37.904;2023-04-08T06:25:28;101644.53;;;6.21;41.67
78117;BME280;69042;59.120;37.904;2023-04-08T06:27:54;101632.41;;;6.28;41.46
78117;BME280;69042;59.120;37.904;2023-04-08T06:30:21;101641.94;;;6.35;41.36
78117;BME280;69042;59.120;37.904;2023-04-08T06:32:46;101640.22;;;6.42;41.25
78117;BME280;69042;59.120;37.904;2023-04-08T06:35:13;101636.72;;;6.47;41.35
78117;BME280;69042;59.120;37.904;2023-04-08T06:37:39;101642.78;;;6.56;41.11
78117;BME280;69042;59.120;37.904;2023-04-08T06:40:05;101647.13;;;6.63;41.03
78117;BME280;69042;59.120;37.904;2023-04-08T06:42:32;101644.50;;;6.71;40.91
78117;BME280;69042;59.120;37.904;2023-04-08T06:45:19;101642.75;;;6.77;40.88
78117;BME280;69042;59.120;37.904;2023-04-08T06:47:45;101643.59;;;6.84;40.74
78117;BME280;69042;59.120;37.904;2023-04-08T06:50:11;101640.13;;;6.88;40.66
78117;BME280;69042;59.120;37.904;2023-04-08T06:52:37;101635.81;;;6.92;40.40
78117;BME280;69042;59.120;37.904;2023-04-08T06:55:03;101641.84;;;7.00;40.24
78117;BME280;69042;59.120;37.904;2023-04-08T06:57:30;101643.56;;;7.04;40.39
78117;BME280;69042;59.120;37.904;2023-04-08T06:59:56;101634.88;;;7.08;40.36
78117;BME280;69042;59.120;37.904;2023-04-08T07:02:22;101642.69;;;7.14;40.40
78117;BME280;69042;59.120;37.904;2023-04-08T07:04:48;101640.91;;;7.21;40.11
78117;BME280;69042;59.120;37.904;2023-04-08T07:07:14;101636.53;;;7.29;40.07
78117;BME280;69042;59.120;37.904;2023-04-08T07:09:42;101632.19;;;7.37;40.02
78117;BME280;69042;59.120;37.904;2023-04-08T07:12:11;101638.22;;;7.45;40.10
78117;BME280;69042;59.120;37.904;2023-04-08T07:14:37;101634.72;;;7.53;39.84
78117;BME280;69042;59.120;37.904;2023-04-08T07:17:03;101627.75;;;7.59;39.56
78117;BME280;69042;59.120;37.904;2023-04-08T07:19:29;101628.56;;;7.66;39.98
78117;BME280;69042;59.120;37.904;2023-04-08T07:21:56;101625.88;;;7.77;39.85
78117;BME280;69042;59.120;37.904;2023-04-08T07:24:22;101625.84;;;7.86;39.23
78117;BME280;69042;59.120;37.904;2023-04-08T07:26:49;101626.66;;;7.94;39.72
78117;BME280;69042;59.120;37.904;2023-04-08T07:29:15;101619.66;;;8.02;39.20
78117;BME280;69042;59.120;37.904;2023-04-08T07:31:44;101619.59;;;8.11;38.73
78117;BME280;69042;59.120;37.904;2023-04-08T07:34:10;101612.59;;;8.17;38.58
78117;BME280;69042;59.120;37.904;2023-04-08T07:36:36;101608.19;;;8.23;38.53
78117;BME280;69042;59.120;37.904;2023-04-08T07:39:03;101608.16;;;8.29;38.55
78117;BME280;69042;59.120;37.904;2023-04-08T07:41:29;101602.00;;;8.38;38.18
78117;BME280;69042;59.120;37.904;2023-04-08T07:43:55;101613.22;;;8.46;38.42
78117;BME280;69042;59.120;37.904;2023-04-08T07:46:21;101611.44;;;8.54;38.18
78117;BME280;69042;59.120;37.904;2023-04-08T07:48:47;101609.63;;;8.63;38.06
78117;BME280;69042;59.120;37.904;2023-04-08T07:51:13;101615.66;;;8.68;37.72
78117;BME280;69042;59.120;37.904;2023-04-08T07:53:39;101615.59;;;8.72;37.46
78117;BME280;69042;59.120;37.904;2023-04-08T07:56:14;101606.88;;;8.78;37.03
78117;BME280;69042;59.120;37.904;2023-04-08T07:58:40;101611.09;;;8.87;37.11
78117;BME280;69042;59.120;37.904;2023-04-08T08:01:20;101604.09;;;8.92;36.59
78117;BME280;69042;59.120;37.904;2023-04-08T08:03:48;101604.84;;;9.02;37.17
78117;BME280;69042;59.120;37.904;2023-04-08T08:06:14;101603.91;;;9.07;37.13
78117;BME280;69042;59.120;37.904;2023-04-08T08:08:41;101604.75;;;9.11;36.97
78117;BME280;69042;59.120;37.904;2023-04-08T08:11:07;101606.44;;;9.16;36.39
78117;BME280;69042;59.120;37.904;2023-04-08T08:13:33;101603.72;;;9.23;36.55
78117;BME280;69042;59.120;37.904;2023-04-08T08:15:59;101604.56;;;9.26;36.11
78117;BME280;69042;59.120;37.904;2023-04-08T08:18:25;101598.41;;;9.30;36.17
78117;BME280;69042;59.120;37.904;2023-04-08T08:20:51;101599.22;;;9.34;35.92
78117;BME280;69042;59.120;37.904;2023-04-08T08:23:17;101593.09;;;9.38;36.06
78117;BME280;69042;59.120;37.904;2023-04-08T08:25:43;101595.66;;;9.41;35.81
78117;BME280;69042;59.120;37.904;2023-04-08T08:28:11;101586.91;;;9.45;36.08
78117;BME280;69042;59.120;37.904;2023-04-08T08:30:37;101592.06;;;9.50;35.64
78117;BME280;69042;59.120;37.904;2023-04-08T08:33:03;101594.59;;;9.54;35.84
78117;BME280;69042;59.120;37.904;2023-04-08T08:35:29;101587.53;;;9.61;35.78
78117;BME280;69042;59.120;37.904;2023-04-08T08:37:55;101584.06;;;9.64;35.51
78117;BME280;69042;59.120;37.904;2023-04-08T08:40:22;101590.06;;;9.67;35.33
78117;BME280;69042;59.120;37.904;2023-04-08T08:42:51;101583.94;;;9.71;34.93
78117;BME280;69042;59.120;37.904;2023-04-08T08:45:21;101587.38;;;9.75;35.01
78117;BME280;69042;59.120;37.904;2023-04-08T08:47:47;101581.25;;;9.77;35.26
78117;BME280;69042;59.120;37.904;2023-04-08T08:50:14;101579.41;;;9.81;34.87
78117;BME280;69042;59.120;37.904;2023-04-08T08:52:47;101575.88;;;9.87;34.35
78117;BME280;69042;59.120;37.904;2023-04-08T08:55:14;101572.34;;;9.89;34.58
78117;BME280;69042;59.120;37.904;2023-04-08T08:57:41;101571.41;;;9.93;34.61
78117;BME280;69042;59.120;37.904;2023-04-08T09:00:08;101570.44;;;9.99;34.17
78117;BME280;69042;59.120;37.904;2023-04-08T09:02:34;101575.66;;;9.99;34.38
78117;BME280;69042;59.120;37.904;2023-04-08T09:05:04;101579.13;;;9.99;34.14
78117;BME280;69042;59.120;37.904;2023-04-08T09:07:34;101573.88;;;10.03;34.07
78117;BME280;69042;59.120;37.904;2023-04-08T09:10:01;101572.97;;;10.05;33.88
78117;BME280;69042;59.120;37.904;2023-04-08T09:12:28;101574.56;;;10.12;34.19
78117;BME280;69042;59.120;37.904;2023-04-08T09:15:06;101569.25;;;10.18;33.81
78117;BME280;69042;59.120;37.904;2023-04-08T09:17:38;101564.75;;;10.27;33.51
78117;BME280;69042;59.120;37.904;2023-04-08T09:22:54;101574.34;;;10.26;33.54
78117;BME280;69042;59.120;37.904;2023-04-08T09:25:23;101567.41;;;10.25;33.57
78117;BME280;69042;59.120;37.904;2023-04-08T09:27:50;101567.41;;;10.25;33.51
78117;BME280;69042;59.120;37.904;2023-04-08T09:30:17;101568.25;;;10.26;33.41
78117;BME280;69042;59.120;37.904;2023-04-08T09:32:48;101564.81;;;10.22;33.31
78117;BME280;69042;59.120;37.904;2023-04-08T09:35:14;101574.41;;;10.21;33.39
78117;BME280;69042;59.120;37.904;2023-04-08T09:37:42;101565.78;;;10.18;33.32
78117;BME280;69042;59.120;37.904;2023-04-08T09:40:08;101568.47;;;10.13;33.53
78117;BME280;69042;59.120;37.904;2023-04-08T09:42:39;101576.41;;;10.09;33.74
78117;BME280;69042;59.120;37.904;2023-04-08T09:45:07;101564.22;;;10.06;33.76
78117;BME280;69042;59.120;37.904;2023-04-08T09:47:43;101568.56;;;10.07;33.83
78117;BME280;69042;59.120;37.904;2023-04-08T09:50:15;101568.47;;;10.13;34.25
78117;BME280;69042;59.120;37.904;2023-04-08T09:52:46;101554.47;;;10.17;33.98
78117;BME280;69042;59.120;37.904;2023-04-08T09:55:16;101555.28;;;10.19;34.28
78117;BME280;69042;59.120;37.904;2023-04-08T09:57:53;101552.69;;;10.19;34.16
78117;BME280;69042;59.120;37.904;2023-04-08T10:00:29;101553.59;;;10.17;34.27
78117;BME280;69042;59.120;37.904;2023-04-08T10:05:44;101552.75;;;10.16;34.13
78117;BME280;69042;59.120;37.904;2023-04-08T10:08:12;101544.91;;;10.16;34.03
78117;BME280;69042;59.120;37.904;2023-04-08T10:10:39;101545.81;;;10.14;34.18
78117;BME280;69042;59.120;37.904;2023-04-08T10:13:06;101538.91;;;10.11;34.40
78117;BME280;69042;59.120;37.904;2023-04-08T10:15:34;101547.59;;;10.12;34.25
78117;BME280;69042;59.120;37.904;2023-04-08T10:23:05;101538.94;;;10.08;34.23
78117;BME280;69042;59.120;37.904;2023-04-08T10:25:35;101542.47;;;10.07;34.13
78117;BME280;69042;59.120;37.904;2023-04-08T10:28:23;101535.50;;;10.06;34.34
78117;BME280;69042;59.120;37.904;2023-04-08T10:30:54;101534.56;;;10.10;34.50
78117;BME280;69042;59.120;37.904;2023-04-08T10:33:22;101532.78;;;10.12;34.70
78117;BME280;69042;59.120;37.904;2023-04-08T10:35:53;101535.31;;;10.17;34.65
78117;BME280;69042;59.120;37.904;2023-04-08T10:38:19;101522.13;;;10.25;34.68
78117;BME280;69042;59.120;37.904;2023-04-08T10:40:47;101524.53;;;10.38;34.64
78117;BME280;69042;59.120;37.904;2023-04-08T10:43:14;101530.44;;;10.48;34.62
78117;BME280;69042;59.120;37.904;2023-04-08T10:45:42;101533.69;;;10.59;34.86
78117;BME280;69042;59.120;37.904;2023-04-08T10:48:20;101530.03;;;10.70;34.84
78117;BME280;69042;59.120;37.904;2023-04-08T10:51:03;101536.69;;;10.84;34.93
78117;BME280;69042;59.120;37.904;2023-04-08T10:53:30;101534.56;;;11.03;34.91
78117;BME280;69042;59.120;37.904;2023-04-08T10:58:50;101518.88;;;11.42;34.64
78117;BME280;69042;59.120;37.904;2023-04-08T11:01:18;101527.97;;;11.63;34.54
78117;BME280;69042;59.120;37.904;2023-04-08T11:03:44;101517.84;;;11.85;34.46
78117;BME280;69042;59.120;37.904;2023-04-08T11:06:10;101520.59;;;12.15;34.30
78117;BME280;69042;59.120;37.904;2023-04-08T11:08:37;101507.56;;;12.45;33.96
78117;BME280;69042;59.120;37.904;2023-04-08T11:11:04;101511.13;;;12.75;33.92
78117;BME280;69042;59.120;37.904;2023-04-08T11:13:35;101502.56;;;12.98;33.62
78117;BME280;69042;59.120;37.904;2023-04-08T11:16:03;101501.72;;;13.26;33.62
78117;BME280;69042;59.120;37.904;2023-04-08T11:18:33;101494.56;;;13.59;32.82
78117;BME280;69042;59.120;37.904;2023-04-08T11:20:59;101499.06;;;13.82;32.84
78117;BME280;69042;59.120;37.904;2023-04-08T11:23:26;101492.09;;;14.08;32.81
78117;BME280;69042;59.120;37.904;2023-04-08T11:25:53;101487.34;;;14.43;32.44
78117;BME280;69042;59.120;37.904;2023-04-08T11:28:19;101491.97;;;14.85;32.24
78117;BME280;69042;59.120;37.904;2023-04-08T11:30:46;101487.53;;;15.09;31.67
78117;BME280;69042;59.120;37.904;2023-04-08T11:33:15;101482.41;;;15.28;31.16
78117;BME280;69042;59.120;37.904;2023-04-08T11:35:43;101479.69;;;15.51;31.20
78117;BME280;69042;59.120;37.904;2023-04-08T11:38:10;101474.63;;;15.89;31.19
78117;BME280;69042;59.120;37.904;2023-04-08T11:40:37;101474.50;;;16.33;31.05
78117;BME280;69042;59.120;37.904;2023-04-08T11:43:12;101469.56;;;16.84;30.78
78117;BME280;69042;59.120;37.904;2023-04-08T11:45:44;101463.91;;;17.30;31.30
78117;BME280;69042;59.120;37.904;2023-04-08T11:48:11;101470.31;;;17.78;31.21
78117;BME280;69042;59.120;37.904;2023-04-08T11:50:40;101461.59;;;18.28;30.58
78117;BME280;69042;59.120;37.904;2023-04-08T11:53:19;101466.34;;;18.88;30.23
78117;BME280;69042;59.120;37.904;2023-04-08T11:55:46;101457.88;;;19.59;29.46
78117;BME280;69042;59.120;37.904;2023-04-08T11:58:13;101451.41;;;20.38;28.96
78117;BME280;69042;59.120;37.904;2023-04-08T12:00:39;101451.97;;;21.13;28.58
78117;BME280;69042;59.120;37.904;2023-04-08T12:03:06;101453.69;;;21.94;27.77
78117;BME280;69042;59.120;37.904;2023-04-08T12:05:32;101451.56;;;22.63;26.84
78117;BME280;69042;59.120;37.904;2023-04-08T12:07:59;101437.22;;;23.14;26.13
78117;BME280;69042;59.120;37.904;2023-04-08T12:10:25;101445.25;;;23.49;25.10
78117;BME280;69042;59.120;37.904;2023-04-08T12:12:51;101436.19;;;23.87;24.90
78117;BME280;69042;59.120;37.904;2023-04-08T12:15:17;101433.19;;;24.26;23.74
78117;BME280;69042;59.120;37.904;2023-04-08T12:17:43;101431.84;;;24.43;23.08
78117;BME280;69042;59.120;37.904;2023-04-08T12:20:11;101431.00;;;24.54;23.13
78117;BME280;69042;59.120;37.904;2023-04-08T12:22:38;101425.97;;;24.83;21.96
78117;BME280;69042;59.120;37.904;2023-04-08T12:25:07;101423.53;;;24.91;22.27
78117;BME280;69042;59.120;37.904;2023-04-08T12:27:35;101426.94;;;24.93;22.03
78117;BME280;69042;59.120;37.904;2023-04-08T12:30:07;101422.75;;;25.23;22.09
78117;BME280;69042;59.120;37.904;2023-04-08T12:32:33;101414.66;;;25.55;20.74
78117;BME280;69042;59.120;37.904;2023-04-08T12:34:59;101418.06;;;25.57;20.95
78117;BME280;69042;59.120;37.904;2023-04-08T12:37:25;101415.91;;;25.72;20.57
78117;BME280;69042;59.120;37.904;2023-04-08T12:39:52;101420.16;;;25.74;21.21
78117;BME280;69042;59.120;37.904;2023-04-08T12:42:18;101408.66;;;26.05;20.71
78117;BME280;69042;59.120;37.904;2023-04-08T12:44:44;101407.19;;;26.22;20.80
78117;BME280;69042;59.120;37.904;2023-04-08T12:47:11;101409.78;;;26.43;20.35
78117;BME280;69042;59.120;37.904;2023-04-08T12:49:37;101403.94;;;26.58;20.19
78117;BME280;69042;59.120;37.904;2023-04-08T12:52:03;101399.47;;;26.88;20.43
78117;BME280;69042;59.120;37.904;2023-04-08T12:54:30;101401.09;;;27.30;19.72
78117;BME280;69042;59.120;37.904;2023-04-08T12:56:57;101389.59;;;27.57;19.61
78117;BME280;69042;59.120;37.904;2023-04-08T12:59:23;101390.34;;;28.06;19.88
78117;BME280;69042;59.120;37.904;2023-04-08T13:01:49;101381.78;;;28.58;19.11
78117;BME280;69042;59.120;37.904;2023-04-08T13:04:15;101377.94;;;28.96;18.62
78117;BME280;69042;59.120;37.904;2023-04-08T13:06:41;101371.28;;;29.18;18.59